sensor_id;sensor_type;location;lat;lon;timestamp;temperature;humidity
8676;DHT22;4375;52.486;13.424;2024-01-30T00:01:25;4.80;99.90
8676;DHT22;4375;52.486;13.424;2024-01-30T00:03:51;4.70;99.90
8676;DHT22;4375;52.486;13.424;2024-01-30T00:06:20;4.70;99.90
8676;DHT22;4375;52.486;13.424;2024-01-30T00:08:46;4.70;99.90
8676;DHT22;4375;52.486;13.424;2024-01-30T00:11:14;4.70;99.90
8676;DHT22;4375;52.486;13.424;2024-01-30T00:13:40;4.60;99.90
8676;DHT22;4375;52.486;13.424;2024-01-30T00:16:06;4.60;99.90
8676;DHT22;4375;52.486;13.424;2024-01-30T00:18:32;4.60;99.90
8676;DHT22;4375;52.486;13.424;2024-01-30T00:20:57;4.60;99.90
8676;DHT22;4375;52.486;13.424;2024-01-30T00:23:23;4.60;99.90
8676;DHT22;4375;52.486;13.424;2024-01-30T00:25:49;4.60;99.90
8676;DHT22;4375;52.486;13.424;2024-01-30T00:28:15;4.60;99.90
8676;DHT22;4375;52.486;13.424;2024-01-30T00:30:40;4.60;99.90
8676;DHT22;4375;52.486;13.424;2024-01-30T00:33:08;4.60;99.90
8676;DHT22;4375;52.486;13.424;2024-01-30T00:35:33;4.60;99.90
8676;DHT22;4375;52.486;13.424;2024-01-30T00:37:59;4.60;99.90
8676;DHT22;4375;52.486;13.424;2024-01-30T00:40:24;4.60;99.90
8676;DHT22;4375;52.486;13.424;2024-01-30T00:42:50;4.60;99.90
8676;DHT22;4375;52.486;13.424;2024-01-30T00:45:16;4.50;99.90
8676;DHT22;4375;52.486;13.424;2024-01-30T00:47:43;4.40;99.90
8676;DHT22;4375;52.486;13.424;2024-01-30T00:50:09;4.50;99.90
8676;DHT22;4375;52.486;13.424;2024-01-30T00:52:35;4.40;99.90
8676;DHT22;4375;52.486;13.424;2024-01-30T00:55:01;4.40;99.90
8676;DHT22;4375;52.486;13.424;2024-01-30T00:57:28;4.40;99.90
8676;DHT22;4375;52.486;13.424;2024-01-30T00:59:53;4.40;99.90
8676;DHT22;4375;52.486;13.424;2024-01-30T01:02:19;4.50;99.90
8676;DHT22;4375;52.486;13.424;2024-01-30T01:04:45;4.40;99.90
8676;DHT22;4375;52.486;13.424;2024-01-30T01:07:11;4.40;99.90
8676;DHT22;4375;52.486;13.424;2024-01-30T01:09:36;4.40;99.90
8676;DHT22;4375;52.486;13.424;2024-01-30T01:12:03;4.30;99.90
8676;DHT22;4375;52.486;13.424;2024-01-30T01:14:28;4.30;99.90
8676;DHT22;4375;52.486;13.424;2024-01-30T01:16:54;4.30;99.90
8676;DHT22;4375;52.486;13.424;2024-01-30T01:19:20;4.20;99.90
8676;DHT22;4375;52.486;13.424;2024-01-30T01:21:45;4.20;99.90
8676;DHT22;4375;52.486;13.424;2024-01-30T01:24:11;4.20;99.90
8676;DHT22;4375;52.486;13.424;2024-01-30T01:26:36;4.20;99.90
8676;DHT22;4375;52.486;13.424;2024-01-30T01:29:02;4.00;99.90
8676;DHT22;4375;52.486;13.424;2024-01-30T01:31:38;4.00;99.90
8676;DHT22;4375;52.486;13.424;2024-01-30T01:34:09;4.00;99.90
8676;DHT22;4375;52.486;13.424;2024-01-30T01:36:35;4.00;99.90
8676;DHT22;4375;52.486;13.424;2024-01-30T01:39:01;3.90;99.90
8676;DHT22;4375;52.486;13.424;2024-01-30T01:41:30;4.00;99.90
8676;DHT22;4375;52.486;13.424;2024-01-30T01:43:56;3.90;99.90
8676;DHT22;4375;52.486;13.424;2024-01-30T01:46:22;3.90;99.90
8676;DHT22;4375;52.486;13.424;2024-01-30T01:48:48;3.80;99.90
8676;DHT22;4375;52.486;13.424;2024-01-30T01:51:14;3.80;99.90
8676;DHT22;4375;52.486;13.424;2024-01-30T01:53:42;3.80;99.90
8676;DHT22;4375;52.486;13.424;2024-01-30T01:56:08;3.80;99.90
8676;DHT22;4375;52.486;13.424;2024-01-30T01:58:34;3.90;99.90
8676;DHT22;4375;52.486;13.424;2024-01-30T02:01:00;3.80;99.90
8676;DHT22;4375;52.486;13.424;2024-01-30T02:03:25;3.70;99.90
8676;DHT22;4375;52.486;13.424;2024-01-30T02:05:51;3.80;99.90
8676;DHT22;4375;52.486;13.424;2024-01-30T02:08:17;3.70;99.90
8676;DHT22;4375;52.486;13.424;2024-01-30T02:10:42;3.70;99.90
8676;DHT22;4375;52.486;13.424;2024-01-30T02:13:08;3.70;99.90
8676;DHT22;4375;52.486;13.424;2024-01-30T02:15:34;3.70;99.90
8676;DHT22;4375;52.486;13.424;2024-01-30T02:17:59;3.70;99.90
8676;DHT22;4375;52.486;13.424;2024-01-30T02:20:25;3.70;99.90
8676;DHT22;4375;52.486;13.424;2024-01-30T02:22:54;3.70;99.90
8676;DHT22;4375;52.486;13.424;2024-01-30T02:25:30;3.70;99.90
8676;DHT22;4375;52.486;13.424;2024-01-30T02:27:56;3.70;99.90
8676;DHT22;4375;52.486;13.424;2024-01-30T02:30:22;3.70;99.90
8676;DHT22;4375;52.486;13.424;2024-01-30T02:32:47;3.70;99.90
8676;DHT22;4375;52.486;13.424;2024-01-30T02:35:13;3.80;99.90
8676;DHT22;4375;52.486;13.424;2024-01-30T02:37:38;3.80;99.90
8676;DHT22;4375;52.486;13.424;2024-01-30T02:40:04;3.70;99.90
8676;DHT22;4375;52.486;13.424;2024-01-30T02:42:30;3.70;99.90
8676;DHT22;4375;52.486;13.424;2024-01-30T02:44:56;3.80;99.90
8676;DHT22;4375;52.486;13.424;2024-01-30T02:47:21;3.80;99.90
8676;DHT22;4375;52.486;13.424;2024-01-30T02:49:47;3.80;99.90
8676;DHT22;4375;52.486;13.424;2024-01-30T02:52:12;3.90;99.90
8676;DHT22;4375;52.486;13.424;2024-01-30T02:54:38;3.90;99.90
8676;DHT22;4375;52.486;13.424;2024-01-30T02:57:04;3.90;99.90
8676;DHT22;4375;52.486;13.424;2024-01-30T02:59:29;3.90;99.90
8676;DHT22;4375;52.486;13.424;2024-01-30T03:01:55;3.90;99.90
8676;DHT22;4375;52.486;13.424;2024-01-30T03:04:21;3.90;99.90
8676;DHT22;4375;52.486;13.424;2024-01-30T03:06:46;3.90;99.90
8676;DHT22;4375;52.486;13.424;2024-01-30T03:09:16;3.90;99.90
8676;DHT22;4375;52.486;13.424;2024-01-30T03:11:42;3.90;99.90
8676;DHT22;4375;52.486;13.424;2024-01-30T03:14:08;4.00;99.90
8676;DHT22;4375;52.486;13.424;2024-01-30T03:16:37;3.90;99.90
8676;DHT22;4375;52.486;13.424;2024-01-30T03:19:04;3.90;99.90
8676;DHT22;4375;52.486;13.424;2024-01-30T03:21:29;3.90;99.90
8676;DHT22;4375;52.486;13.424;2024-01-30T03:23:55;3.90;99.90
8676;DHT22;4375;52.486;13.424;2024-01-30T03:26:20;3.90;99.90
8676;DHT22;4375;52.486;13.424;2024-01-30T03:28:46;3.90;99.90
8676;DHT22;4375;52.486;13.424;2024-01-30T03:31:15;3.90;99.90
8676;DHT22;4375;52.486;13.424;2024-01-30T03:33:41;3.80;99.90
8676;DHT22;4375;52.486;13.424;2024-01-30T03:36:07;3.70;99.90
8676;DHT22;4375;52.486;13.424;2024-01-30T03:38:33;3.70;99.90
8676;DHT22;4375;52.486;13.424;2024-01-30T03:40:59;3.80;99.90
8676;DHT22;4375;52.486;13.424;2024-01-30T03:43:25;3.70;99.90
8676;DHT22;4375;52.486;13.424;2024-01-30T03:45:51;3.80;99.90
8676;DHT22;4375;52.486;13.424;2024-01-30T03:48:16;3.80;99.90
8676;DHT22;4375;52.486;13.424;2024-01-30T03:50:42;3.80;99.90
8676;DHT22;4375;52.486;13.424;2024-01-30T03:53:07;3.70;99.90
8676;DHT22;4375;52.486;13.424;2024-01-30T03:55:33;3.80;99.90
8676;DHT22;4375;52.486;13.424;2024-01-30T03:57:59;3.70;99.90
8676;DHT22;4375;52.486;13.424;2024-01-30T04:00:24;3.70;99.90
8676;DHT22;4375;52.486;13.424;2024-01-30T04:02:50;3.70;99.90
8676;DHT22;4375;52.486;13.424;2024-01-30T04:05:16;3.70;99.90
8676;DHT22;4375;52.486;13.424;2024-01-30T04:07:42;3.70;99.90
8676;DHT22;4375;52.486;13.424;2024-01-30T04:10:09;3.70;99.90
8676;DHT22;4375;52.486;13.424;2024-01-30T04:12:35;3.80;99.90
8676;DHT22;4375;52.486;13.424;2024-01-30T04:15:01;3.80;99.90
8676;DHT22;4375;52.486;13.424;2024-01-30T04:17:27;3.70;99.90
8676;DHT22;4375;52.486;13.424;2024-01-30T04:19:54;3.70;99.90
8676;DHT22;4375;52.486;13.424;2024-01-30T04:22:20;3.80;99.90
8676;DHT22;4375;52.486;13.424;2024-01-30T04:24:45;3.70;99.90
8676;DHT22;4375;52.486;13.424;2024-01-30T04:27:11;3.80;99.90
8676;DHT22;4375;52.486;13.424;2024-01-30T04:29:37;3.80;99.90
8676;DHT22;4375;52.486;13.424;2024-01-30T04:32:02;3.80;99.90
8676;DHT22;4375;52.486;13.424;2024-01-30T04:34:28;3.70;99.90
8676;DHT22;4375;52.486;13.424;2024-01-30T04:36:54;3.70;99.90
8676;DHT22;4375;52.486;13.424;2024-01-30T04:39:20;3.70;99.90
8676;DHT22;4375;52.486;13.424;2024-01-30T04:41:45;3.70;99.90
8676;DHT22;4375;52.486;13.424;2024-01-30T04:44:11;3.70;99.90
8676;DHT22;4375;52.486;13.424;2024-01-30T04:46:37;3.70;99.90
8676;DHT22;4375;52.486;13.424;2024-01-30T04:49:02;3.70;99.90
8676;DHT22;4375;52.486;13.424;2024-01-30T04:51:28;3.90;99.90
8676;DHT22;4375;52.486;13.424;2024-01-30T04:53:55;3.80;99.90
8676;DHT22;4375;52.486;13.424;2024-01-30T04:56:21;3.80;99.90
8676;DHT22;4375;52.486;13.424;2024-01-30T04:58:46;3.80;99.90
8676;DHT22;4375;52.486;13.424;2024-01-30T05:01:16;3.80;99.90
8676;DHT22;4375;52.486;13.424;2024-01-30T05:03:42;3.80;99.90
8676;DHT22;4375;52.486;13.424;2024-01-30T05:06:08;3.80;99.90
8676;DHT22;4375;52.486;13.424;2024-01-30T05:08:33;3.80;99.90
8676;DHT22;4375;52.486;13.424;2024-01-30T05:11:02;3.80;99.90
8676;DHT22;4375;52.486;13.424;2024-01-30T05:13:30;3.80;99.90
8676;DHT22;4375;52.486;13.424;2024-01-30T05:15:55;3.80;99.90
8676;DHT22;4375;52.486;13.424;2024-01-30T05:18:21;3.90;99.90
8676;DHT22;4375;52.486;13.424;2024-01-30T05:20:47;3.90;99.90
8676;DHT22;4375;52.486;13.424;2024-01-30T05:23:12;3.90;99.90
8676;DHT22;4375;52.486;13.424;2024-01-30T05:25:38;3.90;99.90
8676;DHT22;4375;52.486;13.424;2024-01-30T05:28:04;3.80;99.90
8676;DHT22;4375;52.486;13.424;2024-01-30T05:30:30;3.80;99.90
8676;DHT22;4375;52.486;13.424;2024-01-30T05:32:55;3.80;99.90
8676;DHT22;4375;52.486;13.424;2024-01-30T05:35:21;3.80;99.90
8676;DHT22;4375;52.486;13.424;2024-01-30T05:37:48;3.80;99.90
8676;DHT22;4375;52.486;13.424;2024-01-30T05:40:14;3.80;99.90
8676;DHT22;4375;52.486;13.424;2024-01-30T05:42:40;3.90;99.90
8676;DHT22;4375;52.486;13.424;2024-01-30T05:45:06;3.80;99.90
8676;DHT22;4375;52.486;13.424;2024-01-30T05:47:32;3.80;99.90
8676;DHT22;4375;52.486;13.424;2024-01-30T05:49:57;3.80;99.90
8676;DHT22;4375;52.486;13.424;2024-01-30T05:52:23;3.80;99.90
8676;DHT22;4375;52.486;13.424;2024-01-30T05:54:48;3.80;99.90
8676;DHT22;4375;52.486;13.424;2024-01-30T05:57:14;3.80;99.90
8676;DHT22;4375;52.486;13.424;2024-01-30T05:59:40;3.80;99.90
8676;DHT22;4375;52.486;13.424;2024-01-30T06:02:05;3.80;99.90
8676;DHT22;4375;52.486;13.424;2024-01-30T06:04:31;3.80;99.90
8676;DHT22;4375;52.486;13.424;2024-01-30T06:06:56;3.80;99.90
8676;DHT22;4375;52.486;13.424;2024-01-30T06:09:22;3.80;99.90
8676;DHT22;4375;52.486;13.424;2024-01-30T06:11:47;3.80;99.90
8676;DHT22;4375;52.486;13.424;2024-01-30T06:14:13;3.80;99.90
8676;DHT22;4375;52.486;13.424;2024-01-30T06:16:39;3.90;99.90
8676;DHT22;4375;52.486;13.424;2024-01-30T06:19:04;3.80;99.90
8676;DHT22;4375;52.486;13.424;2024-01-30T06:21:31;3.80;99.90
8676;DHT22;4375;52.486;13.424;2024-01-30T06:24:00;3.70;99.90
8676;DHT22;4375;52.486;13.424;2024-01-30T06:26:27;3.80;99.90
8676;DHT22;4375;52.486;13.424;2024-01-30T06:28:52;3.80;99.90
8676;DHT22;4375;52.486;13.424;2024-01-30T06:31:18;3.70;99.90
8676;DHT22;4375;52.486;13.424;2024-01-30T06:33:47;3.70;99.90
8676;DHT22;4375;52.486;13.424;2024-01-30T06:36:12;3.80;99.90
8676;DHT22;4375;52.486;13.424;2024-01-30T06:38:38;3.60;99.90
8676;DHT22;4375;52.486;13.424;2024-01-30T06:41:03;3.70;99.90
8676;DHT22;4375;52.486;13.424;2024-01-30T06:43:29;3.60;99.90
8676;DHT22;4375;52.486;13.424;2024-01-30T06:45:55;3.60;99.90
8676;DHT22;4375;52.486;13.424;2024-01-30T06:48:20;3.60;99.90
8676;DHT22;4375;52.486;13.424;2024-01-30T06:50:46;3.60;99.90
8676;DHT22;4375;52.486;13.424;2024-01-30T06:53:13;3.60;99.90
8676;DHT22;4375;52.486;13.424;2024-01-30T06:55:39;3.60;99.90
8676;DHT22;4375;52.486;13.424;2024-01-30T06:58:04;3.60;99.90
8676;DHT22;4375;52.486;13.424;2024-01-30T07:00:30;3.70;99.90
8676;DHT22;4375;52.486;13.424;2024-01-30T07:02:56;3.70;99.90
8676;DHT22;4375;52.486;13.424;2024-01-30T07:05:21;3.80;99.90
8676;DHT22;4375;52.486;13.424;2024-01-30T07:07:47;3.80;99.90
8676;DHT22;4375;52.486;13.424;2024-01-30T07:10:13;3.70;99.90
8676;DHT22;4375;52.486;13.424;2024-01-30T07:12:38;3.80;99.90
8676;DHT22;4375;52.486;13.424;2024-01-30T07:15:05;3.80;99.90
8676;DHT22;4375;52.486;13.424;2024-01-30T07:17:33;3.70;99.90
8676;DHT22;4375;52.486;13.424;2024-01-30T07:19:59;3.70;99.90
8676;DHT22;4375;52.486;13.424;2024-01-30T07:22:25;3.60;99.90
8676;DHT22;4375;52.486;13.424;2024-01-30T07:24:50;3.70;99.90
8676;DHT22;4375;52.486;13.424;2024-01-30T07:27:17;3.80;99.90
8676;DHT22;4375;52.486;13.424;2024-01-30T07:29:43;3.80;99.90
8676;DHT22;4375;52.486;13.424;2024-01-30T07:32:09;3.90;99.90
8676;DHT22;4375;52.486;13.424;2024-01-30T07:34:35;3.90;99.90
8676;DHT22;4375;52.486;13.424;2024-01-30T07:37:01;3.90;99.90
8676;DHT22;4375;52.486;13.424;2024-01-30T07:39:27;3.90;99.90
8676;DHT22;4375;52.486;13.424;2024-01-30T07:41:53;4.00;99.90
8676;DHT22;4375;52.486;13.424;2024-01-30T07:44:19;4.00;99.90
8676;DHT22;4375;52.486;13.424;2024-01-30T07:46:44;4.00;99.90
8676;DHT22;4375;52.486;13.424;2024-01-30T07:49:12;4.10;99.90
8676;DHT22;4375;52.486;13.424;2024-01-30T07:51:39;4.00;99.90
8676;DHT22;4375;52.486;13.424;2024-01-30T07:54:14;4.10;99.90
8676;DHT22;4375;52.486;13.424;2024-01-30T07:56:40;4.20;99.90
8676;DHT22;4375;52.486;13.424;2024-01-30T07:59:09;4.20;99.90
8676;DHT22;4375;52.486;13.424;2024-01-30T08:01:34;4.20;99.90
8676;DHT22;4375;52.486;13.424;2024-01-30T08:04:00;4.20;99.90
8676;DHT22;4375;52.486;13.424;2024-01-30T08:06:26;4.20;99.90
8676;DHT22;4375;52.486;13.424;2024-01-30T08:08:51;4.20;99.90
8676;DHT22;4375;52.486;13.424;2024-01-30T08:11:20;4.30;99.90
8676;DHT22;4375;52.486;13.424;2024-01-30T08:13:45;4.40;99.90
8676;DHT22;4375;52.486;13.424;2024-01-30T08:16:11;4.50;99.90
8676;DHT22;4375;52.486;13.424;2024-01-30T08:18:37;4.50;99.90
8676;DHT22;4375;52.486;13.424;2024-01-30T08:21:03;4.60;99.90
8676;DHT22;4375;52.486;13.424;2024-01-30T08:23:29;4.70;99.90
8676;DHT22;4375;52.486;13.424;2024-01-30T08:25:55;4.70;99.90
8676;DHT22;4375;52.486;13.424;2024-01-30T08:28:20;4.70;99.90
8676;DHT22;4375;52.486;13.424;2024-01-30T08:30:46;4.80;99.90
8676;DHT22;4375;52.486;13.424;2024-01-30T08:33:11;4.80;99.90
8676;DHT22;4375;52.486;13.424;2024-01-30T08:35:37;4.90;99.90
8676;DHT22;4375;52.486;13.424;2024-01-30T08:38:03;4.90;99.90
8676;DHT22;4375;52.486;13.424;2024-01-30T08:40:29;5.00;99.90
8676;DHT22;4375;52.486;13.424;2024-01-30T08:42:56;5.00;99.90
8676;DHT22;4375;52.486;13.424;2024-01-30T08:45:21;5.20;99.90
8676;DHT22;4375;52.486;13.424;2024-01-30T08:47:47;5.20;99.90
8676;DHT22;4375;52.486;13.424;2024-01-30T08:50:13;5.30;99.90
8676;DHT22;4375;52.486;13.424;2024-01-30T08:52:38;5.40;99.90
8676;DHT22;4375;52.486;13.424;2024-01-30T08:55:04;5.40;99.90
8676;DHT22;4375;52.486;13.424;2024-01-30T08:57:30;5.50;99.90
8676;DHT22;4375;52.486;13.424;2024-01-30T08:59:56;5.50;99.90
8676;DHT22;4375;52.486;13.424;2024-01-30T09:02:21;5.50;99.90
8676;DHT22;4375;52.486;13.424;2024-01-30T09:04:47;5.60;99.90
8676;DHT22;4375;52.486;13.424;2024-01-30T09:07:13;5.60;99.90
8676;DHT22;4375;52.486;13.424;2024-01-30T09:09:39;5.60;99.90
8676;DHT22;4375;52.486;13.424;2024-01-30T09:12:06;5.60;99.90
8676;DHT22;4375;52.486;13.424;2024-01-30T09:14:37;5.70;99.90
8676;DHT22;4375;52.486;13.424;2024-01-30T09:17:11;5.80;99.90
8676;DHT22;4375;52.486;13.424;2024-01-30T09:19:37;5.80;99.90
8676;DHT22;4375;52.486;13.424;2024-01-30T09:22:03;5.90;99.90
8676;DHT22;4375;52.486;13.424;2024-01-30T09:24:29;5.90;99.90
8676;DHT22;4375;52.486;13.424;2024-01-30T09:26:54;5.90;99.90
8676;DHT22;4375;52.486;13.424;2024-01-30T09:29:21;6.00;99.90
8676;DHT22;4375;52.486;13.424;2024-01-30T09:31:47;6.00;99.90
8676;DHT22;4375;52.486;13.424;2024-01-30T09:34:13;6.00;99.90
8676;DHT22;4375;52.486;13.424;2024-01-30T09:36:39;6.20;99.90
8676;DHT22;4375;52.486;13.424;2024-01-30T09:39:05;6.20;99.90
8676;DHT22;4375;52.486;13.424;2024-01-30T09:44:29;6.30;99.90
8676;DHT22;4375;52.486;13.424;2024-01-30T09:46:56;6.30;99.90
8676;DHT22;4375;52.486;13.424;2024-01-30T09:49:24;6.40;99.90
8676;DHT22;4375;52.486;13.424;2024-01-30T09:51:50;6.30;99.90
8676;DHT22;4375;52.486;13.424;2024-01-30T09:54:17;6.40;99.90
8676;DHT22;4375;52.486;13.424;2024-01-30T09:56:43;6.50;99.90
8676;DHT22;4375;52.486;13.424;2024-01-30T09:59:09;6.50;99.90
8676;DHT22;4375;52.486;13.424;2024-01-30T10:01:35;6.50;99.90
8676;DHT22;4375;52.486;13.424;2024-01-30T10:04:01;6.60;99.90
8676;DHT22;4375;52.486;13.424;2024-01-30T10:06:27;6.70;99.90
8676;DHT22;4375;52.486;13.424;2024-01-30T10:08:54;6.70;99.90
8676;DHT22;4375;52.486;13.424;2024-01-30T10:11:20;6.80;99.90
8676;DHT22;4375;52.486;13.424;2024-01-30T10:13:46;6.90;99.90
8676;DHT22;4375;52.486;13.424;2024-01-30T10:16:14;7.10;99.90
8676;DHT22;4375;52.486;13.424;2024-01-30T10:18:42;7.20;99.90
8676;DHT22;4375;52.486;13.424;2024-01-30T10:21:08;7.20;99.90
8676;DHT22;4375;52.486;13.424;2024-01-30T10:23:35;7.30;99.90
8676;DHT22;4375;52.486;13.424;2024-01-30T10:26:03;7.30;99.90
8676;DHT22;4375;52.486;13.424;2024-01-30T10:28:29;7.50;99.90
8676;DHT22;4375;52.486;13.424;2024-01-30T10:31:02;7.40;99.90
8676;DHT22;4375;52.486;13.424;2024-01-30T10:33:31;7.40;99.90
8676;DHT22;4375;52.486;13.424;2024-01-30T10:36:04;7.40;99.90
8676;DHT22;4375;52.486;13.424;2024-01-30T10:38:31;7.40;99.90
8676;DHT22;4375;52.486;13.424;2024-01-30T10:41:00;7.40;99.90
8676;DHT22;4375;52.486;13.424;2024-01-30T10:43:35;7.40;99.90
8676;DHT22;4375;52.486;13.424;2024-01-30T10:46:17;7.30;99.90
8676;DHT22;4375;52.486;13.424;2024-01-30T10:48:44;7.40;99.90
8676;DHT22;4375;52.486;13.424;2024-01-30T10:51:13;7.30;99.90
8676;DHT22;4375;52.486;13.424;2024-01-30T10:53:39;7.30;99.90
8676;DHT22;4375;52.486;13.424;2024-01-30T10:56:06;7.30;99.90
8676;DHT22;4375;52.486;13.424;2024-01-30T10:58:33;7.20;99.90
8676;DHT22;4375;52.486;13.424;2024-01-30T11:00:59;7.30;99.90
8676;DHT22;4375;52.486;13.424;2024-01-30T11:03:25;7.40;99.90
8676;DHT22;4375;52.486;13.424;2024-01-30T11:05:51;7.40;99.90
8676;DHT22;4375;52.486;13.424;2024-01-30T11:08:26;7.50;99.90
8676;DHT22;4375;52.486;13.424;2024-01-30T11:10:57;7.50;99.90
8676;DHT22;4375;52.486;13.424;2024-01-30T11:13:30;7.50;99.90
8676;DHT22;4375;52.486;13.424;2024-01-30T11:16:00;7.50;99.90
8676;DHT22;4375;52.486;13.424;2024-01-30T11:18:29;7.50;99.90
8676;DHT22;4375;52.486;13.424;2024-01-30T11:20:59;7.50;99.90
8676;DHT22;4375;52.486;13.424;2024-01-30T11:23:27;7.50;99.90
8676;DHT22;4375;52.486;13.424;2024-01-30T11:25:54;7.60;99.90
8676;DHT22;4375;52.486;13.424;2024-01-30T11:28:21;7.60;99.90
8676;DHT22;4375;52.486;13.424;2024-01-30T11:30:47;7.60;99.90
8676;DHT22;4375;52.486;13.424;2024-01-30T11:33:29;7.60;99.90
8676;DHT22;4375;52.486;13.424;2024-01-30T11:35:57;7.60;99.90
8676;DHT22;4375;52.486;13.424;2024-01-30T11:38:26;7.60;99.90
8676;DHT22;4375;52.486;13.424;2024-01-30T11:40:54;7.70;99.90
8676;DHT22;4375;52.486;13.424;2024-01-30T11:43:20;7.80;99.90
8676;DHT22;4375;52.486;13.424;2024-01-30T11:45:45;7.80;99.90
8676;DHT22;4375;52.486;13.424;2024-01-30T11:48:12;7.80;99.90
8676;DHT22;4375;52.486;13.424;2024-01-30T11:50:39;7.80;99.90
8676;DHT22;4375;52.486;13.424;2024-01-30T11:53:06;7.90;99.90
8676;DHT22;4375;52.486;13.424;2024-01-30T11:55:32;7.90;99.90
8676;DHT22;4375;52.486;13.424;2024-01-30T11:57:58;8.00;99.90
8676;DHT22;4375;52.486;13.424;2024-01-30T12:00:24;8.00;99.90
8676;DHT22;4375;52.486;13.424;2024-01-30T12:02:59;8.10;99.90
8676;DHT22;4375;52.486;13.424;2024-01-30T12:05:26;8.20;99.90
8676;DHT22;4375;52.486;13.424;2024-01-30T12:07:53;8.20;99.90
8676;DHT22;4375;52.486;13.424;2024-01-30T12:10:18;8.30;99.90
8676;DHT22;4375;52.486;13.424;2024-01-30T12:12:50;8.40;99.90
8676;DHT22;4375;52.486;13.424;2024-01-30T12:15:18;8.40;99.90
8676;DHT22;4375;52.486;13.424;2024-01-30T12:17:44;8.50;99.90
8676;DHT22;4375;52.486;13.424;2024-01-30T12:20:10;8.50;99.90
8676;DHT22;4375;52.486;13.424;2024-01-30T12:22:37;8.70;99.90
8676;DHT22;4375;52.486;13.424;2024-01-30T12:25:10;8.70;99.90
8676;DHT22;4375;52.486;13.424;2024-01-30T12:27:37;8.60;99.90
8676;DHT22;4375;52.486;13.424;2024-01-30T12:30:09;8.60;99.90
8676;DHT22;4375;52.486;13.424;2024-01-30T12:32:39;8.60;99.90
8676;DHT22;4375;52.486;13.424;2024-01-30T12:35:19;8.60;99.90
8676;DHT22;4375;52.486;13.424;2024-01-30T12:37:48;8.70;99.90
8676;DHT22;4375;52.486;13.424;2024-01-30T12:40:15;8.70;99.90
8676;DHT22;4375;52.486;13.424;2024-01-30T12:42:41;8.70;99.90
8676;DHT22;4375;52.486;13.424;2024-01-30T12:45:13;8.60;99.90
8676;DHT22;4375;52.486;13.424;2024-01-30T12:47:40;8.70;99.90
8676;DHT22;4375;52.486;13.424;2024-01-30T12:50:05;8.60;99.90
8676;DHT22;4375;52.486;13.424;2024-01-30T12:52:31;8.60;99.90
8676;DHT22;4375;52.486;13.424;2024-01-30T12:54:57;8.60;99.90
8676;DHT22;4375;52.486;13.424;2024-01-30T12:57:22;8.60;99.90
8676;DHT22;4375;52.486;13.424;2024-01-30T12:59:49;8.60;99.90
8676;DHT22;4375;52.486;13.424;2024-01-30T13:02:15;8.60;99.90
8676;DHT22;4375;52.486;13.424;2024-01-30T13:04:41;8.50;99.90
8676;DHT22;4375;52.486;13.424;2024-01-30T13:07:07;8.40;99.90
8676;DHT22;4375;52.486;13.424;2024-01-30T13:09:33;8.40;99.90
8676;DHT22;4375;52.486;13.424;2024-01-30T13:11:59;8.50;99.90
8676;DHT22;4375;52.486;13.424;2024-01-30T13:14:27;8.50;99.90
8676;DHT22;4375;52.486;13.424;2024-01-30T13:16:53;8.60;99.90
8676;DHT22;4375;52.486;13.424;2024-01-30T13:19:19;8.60;99.90
8676;DHT22;4375;52.486;13.424;2024-01-30T13:21:44;8.60;99.90
8676;DHT22;4375;52.486;13.424;2024-01-30T13:24:10;8.60;99.90
8676;DHT22;4375;52.486;13.424;2024-01-30T13:26:36;8.60;99.90
8676;DHT22;4375;52.486;13.424;2024-01-30T13:29:02;8.50;99.90
8676;DHT22;4375;52.486;13.424;2024-01-30T13:31:36;8.50;99.90
8676;DHT22;4375;52.486;13.424;2024-01-30T13:34:02;8.60;99.90
8676;DHT22;4375;52.486;13.424;2024-01-30T13:39:03;8.60;99.90
8676;DHT22;4375;52.486;13.424;2024-01-30T13:41:32;8.70;99.90
8676;DHT22;4375;52.486;13.424;2024-01-30T13:43:58;8.70;99.90
8676;DHT22;4375;52.486;13.424;2024-01-30T13:46:24;8.60;99.90
8676;DHT22;4375;52.486;13.424;2024-01-30T13:48:50;8.70;99.90
8676;DHT22;4375;52.486;13.424;2024-01-30T13:51:16;8.70;99.90
8676;DHT22;4375;52.486;13.424;2024-01-30T13:53:42;8.70;99.90
8676;DHT22;4375;52.486;13.424;2024-01-30T13:56:08;8.80;99.90
8676;DHT22;4375;52.486;13.424;2024-01-30T13:58:34;8.80;99.90
8676;DHT22;4375;52.486;13.424;2024-01-30T14:01:01;8.80;99.90
8676;DHT22;4375;52.486;13.424;2024-01-30T14:03:27;8.80;99.90
8676;DHT22;4375;52.486;13.424;2024-01-30T14:05:53;8.80;99.90
8676;DHT22;4375;52.486;13.424;2024-01-30T14:08:19;8.90;99.90
8676;DHT22;4375;52.486;13.424;2024-01-30T14:10:47;8.80;99.90
8676;DHT22;4375;52.486;13.424;2024-01-30T14:13:12;8.80;99.90
8676;DHT22;4375;52.486;13.424;2024-01-30T14:15:38;8.80;99.90
8676;DHT22;4375;52.486;13.424;2024-01-30T14:18:05;8.80;99.90
8676;DHT22;4375;52.486;13.424;2024-01-30T14:20:33;8.90;99.90
8676;DHT22;4375;52.486;13.424;2024-01-30T14:22:59;8.90;99.90
8676;DHT22;4375;52.486;13.424;2024-01-30T14:25:24;8.80;99.90
8676;DHT22;4375;52.486;13.424;2024-01-30T14:27:50;8.80;99.90
8676;DHT22;4375;52.486;13.424;2024-01-30T14:30:17;8.80;99.90
8676;DHT22;4375;52.486;13.424;2024-01-30T14:32:42;8.90;99.90
8676;DHT22;4375;52.486;13.424;2024-01-30T14:35:10;9.00;99.90
8676;DHT22;4375;52.486;13.424;2024-01-30T14:37:37;9.00;99.90
8676;DHT22;4375;52.486;13.424;2024-01-30T14:40:03;9.00;99.90
8676;DHT22;4375;52.486;13.424;2024-01-30T14:42:29;9.10;99.90
8676;DHT22;4375;52.486;13.424;2024-01-30T14:44:57;9.00;99.90
8676;DHT22;4375;52.486;13.424;2024-01-30T14:47:22;9.00;99.90
8676;DHT22;4375;52.486;13.424;2024-01-30T14:49:48;9.00;99.90
8676;DHT22;4375;52.486;13.424;2024-01-30T14:52:14;9.00;99.90
8676;DHT22;4375;52.486;13.424;2024-01-30T14:54:40;9.00;99.90
8676;DHT22;4375;52.486;13.424;2024-01-30T14:57:06;8.90;99.90
8676;DHT22;4375;52.486;13.424;2024-01-30T14:59:31;9.00;99.90
8676;DHT22;4375;52.486;13.424;2024-01-30T15:01:58;9.00;99.90
8676;DHT22;4375;52.486;13.424;2024-01-30T15:04:24;9.00;99.90
8676;DHT22;4375;52.486;13.424;2024-01-30T15:06:50;9.00;99.90
8676;DHT22;4375;52.486;13.424;2024-01-30T15:09:15;8.90;99.90
8676;DHT22;4375;52.486;13.424;2024-01-30T15:11:43;8.80;99.90
8676;DHT22;4375;52.486;13.424;2024-01-30T15:14:09;8.80;99.90
8676;DHT22;4375;52.486;13.424;2024-01-30T15:16:35;8.70;99.90
8676;DHT22;4375;52.486;13.424;2024-01-30T15:19:01;8.70;99.90
8676;DHT22;4375;52.486;13.424;2024-01-30T15:21:28;8.60;99.90
8676;DHT22;4375;52.486;13.424;2024-01-30T15:23:54;8.70;99.90
8676;DHT22;4375;52.486;13.424;2024-01-30T15:26:20;8.70;99.90
8676;DHT22;4375;52.486;13.424;2024-01-30T15:28:46;8.60;99.90
8676;DHT22;4375;52.486;13.424;2024-01-30T15:31:14;8.60;99.90
8676;DHT22;4375;52.486;13.424;2024-01-30T15:33:40;8.60;99.90
8676;DHT22;4375;52.486;13.424;2024-01-30T15:36:05;8.60;99.90
8676;DHT22;4375;52.486;13.424;2024-01-30T15:38:31;8.60;99.90
8676;DHT22;4375;52.486;13.424;2024-01-30T15:40:57;8.60;99.90
8676;DHT22;4375;52.486;13.424;2024-01-30T15:43:23;8.60;99.90
8676;DHT22;4375;52.486;13.424;2024-01-30T15:45:50;8.60;99.90
8676;DHT22;4375;52.486;13.424;2024-01-30T15:48:17;8.50;99.90
8676;DHT22;4375;52.486;13.424;2024-01-30T15:50:43;8.50;99.90
8676;DHT22;4375;52.486;13.424;2024-01-30T15:53:09;8.50;99.90
8676;DHT22;4375;52.486;13.424;2024-01-30T15:55:34;8.40;99.90
8676;DHT22;4375;52.486;13.424;2024-01-30T15:58:00;8.40;99.90
8676;DHT22;4375;52.486;13.424;2024-01-30T16:00:28;8.40;99.90
8676;DHT22;4375;52.486;13.424;2024-01-30T16:02:53;8.30;99.90